createdAt,value
2023-01-31T10:33:16.714Z,1.50
2023-01-31T10:38:19.503Z,2.20
2023-01-31T10:43:17.934Z,2.10
2023-01-31T10:48:20.098Z,1.20
2023-01-31T10:53:39.465Z,3.37
2023-01-31T10:58:33.551Z,4.07
2023-01-31T11:03:29.091Z,4.23
2023-01-31T11:08:36.822Z,4.53
2023-01-31T11:13:30.656Z,4.40
2023-01-31T11:18:48.408Z,3.10
2023-01-31T11:23:46.577Z,1.60
2023-01-31T11:28:42.523Z,2.03
2023-01-31T11:33:57.001Z,2.40
2023-01-31T11:38:51.347Z,2.57
2023-01-31T11:43:45.439Z,3.13
2023-01-31T11:48:43.468Z,4.73
2023-01-31T11:53:45.529Z,4.37
2023-01-31T11:58:46.209Z,2.20
2023-01-31T12:03:55.288Z,2.07
2023-01-31T12:08:59.085Z,1.70
2023-01-31T12:13:55.453Z,4.07
2023-01-31T12:18:59.641Z,3.13
2023-01-31T12:24:06.318Z,3.97
2023-01-31T12:29:26.285Z,5.20
2023-01-31T12:34:33.024Z,2.50
2023-01-31T12:39:49.266Z,1.20
2023-01-31T12:44:49.161Z,4.63
2023-01-31T12:49:55.179Z,2.20
2023-01-31T12:55:04.961Z,3.77
2023-01-31T13:00:11.399Z,4.30
2023-01-31T13:05:14.474Z,3.63
2023-01-31T13:10:30.344Z,2.47
2023-01-31T13:15:32.602Z,3.13
2023-01-31T13:20:35.841Z,3.00
2023-01-31T13:25:47.941Z,3.00
2023-01-31T13:30:49.061Z,4.25
2023-01-31T13:35:45.643Z,3.30
2023-01-31T13:40:51.243Z,4.70
2023-01-31T13:45:54.906Z,3.03
2023-01-31T13:50:54.084Z,5.33
2023-01-31T13:55:50.838Z,3.40
2023-01-31T14:00:54.484Z,4.83
2023-01-31T14:06:10.173Z,3.40
2023-01-31T14:11:43.715Z,4.10
2023-01-31T14:16:44.220Z,3.40
2023-01-31T14:21:58.163Z,4.73
2023-01-31T14:26:57.153Z,2.77
2023-01-31T14:31:52.815Z,3.70
2023-01-31T14:37:03.499Z,1.57
2023-01-31T14:42:20.952Z,2.30
2023-01-31T14:47:28.325Z,3.30
2023-01-31T14:52:37.588Z,3.87
2023-01-31T14:57:35.738Z,4.30
2023-01-31T15:02:49.798Z,5.80
2023-01-31T15:08:06.030Z,9.70
2023-01-31T15:13:02.569Z,5.97
2023-01-31T15:18:04.416Z,10.87
2023-01-31T15:23:05.024Z,5.20
2023-01-31T15:28:01.481Z,3.93
2023-01-31T15:33:00.040Z,4.23
2023-01-31T15:38:01.873Z,4.03
2023-01-31T15:42:56.284Z,3.57
2023-01-31T15:48:05.740Z,14.40
2023-01-31T15:53:09.086Z,4.63
2023-01-31T15:58:08.653Z,3.80
2023-01-31T16:03:06.688Z,4.67
2023-01-31T16:08:11.566Z,5.27
2023-01-31T16:23:46.294Z,23.70
2023-01-31T16:28:45.700Z,13.53
2023-01-31T16:33:47.468Z,30.17
2023-01-31T16:38:44.137Z,16.63
2023-01-31T16:43:39.551Z,23.93
2023-01-31T16:54:56.258Z,48.17
2023-01-31T17:05:58.959Z,23.30
